sensor_id;sensor_type;location;lat;lon;timestamp;pressure;altitude;pressure_sealevel;temperature;humidity
81232;BME280;70703;55.652;37.710;2024-03-08T00:00:24;100338.28;;;-1.64;55.31
81232;BME280;70703;55.652;37.710;2024-03-08T00:00:36;100336.44;;;-1.62;55.41
81232;BME280;70703;55.652;37.710;2024-03-08T00:00:50;100322.75;;;-1.67;55.26
81232;BME280;70703;55.652;37.710;2024-03-08T00:01:03;100327.06;;;-1.66;54.98
81232;BME280;70703;55.652;37.710;2024-03-08T00:01:15;100328.00;;;-1.67;55.10
81232;BME280;70703;55.652;37.710;2024-03-08T00:01:28;100333.03;;;-1.64;55.14
81232;BME280;70703;55.652;37.710;2024-03-08T00:01:41;100334.94;;;-1.66;54.94
81232;BME280;70703;55.652;37.710;2024-03-08T00:01:53;100335.66;;;-1.64;55.35
81232;BME280;70703;55.652;37.710;2024-03-08T00:02:04;100339.97;;;-1.63;55.18
81232;BME280;70703;55.652;37.710;2024-03-08T00:02:16;100324.63;;;-1.69;55.34
81232;BME280;70703;55.652;37.710;2024-03-08T00:02:30;100321.16;;;-1.70;54.94
81232;BME280;70703;55.652;37.710;2024-03-08T00:02:42;100340.81;;;-1.63;55.23
81232;BME280;70703;55.652;37.710;2024-03-08T00:02:54;100316.09;;;-1.73;55.19
81232;BME280;70703;55.652;37.710;2024-03-08T00:03:06;100330.63;;;-1.67;55.10
81232;BME280;70703;55.652;37.710;2024-03-08T00:03:17;100336.63;;;-1.65;55.03
81232;BME280;70703;55.652;37.710;2024-03-08T00:03:30;100338.28;;;-1.64;55.02
81232;BME280;70703;55.652;37.710;2024-03-08T00:03:41;100319.38;;;-1.69;55.19
81232;BME280;70703;55.652;37.710;2024-03-08T00:03:53;100329.59;;;-1.65;55.07
81232;BME280;70703;55.652;37.710;2024-03-08T00:04:05;100328.75;;;-1.65;54.80
81232;BME280;70703;55.652;37.710;2024-03-08T00:04:18;100338.28;;;-1.64;54.94
81232;BME280;70703;55.652;37.710;2024-03-08T00:04:29;100336.63;;;-1.65;54.81
81232;BME280;70703;55.652;37.710;2024-03-08T00:04:43;100331.53;;;-1.68;54.94
81232;BME280;70703;55.652;37.710;2024-03-08T00:04:56;100326.13;;;-1.65;54.77
81232;BME280;70703;55.652;37.710;2024-03-08T00:05:09;100331.38;;;-1.65;55.19
81232;BME280;70703;55.652;37.710;2024-03-08T00:05:20;100314.31;;;-1.73;54.74
81232;BME280;70703;55.652;37.710;2024-03-08T00:05:33;100324.53;;;-1.68;54.93
81232;BME280;70703;55.652;37.710;2024-03-08T00:05:45;100330.50;;;-1.66;54.64
81232;BME280;70703;55.652;37.710;2024-03-08T00:05:56;100328.00;;;-1.67;54.95
81232;BME280;70703;55.652;37.710;2024-03-08T00:06:08;100325.28;;;-1.66;54.79
81232;BME280;70703;55.652;37.710;2024-03-08T00:06:20;100336.63;;;-1.65;54.68
81232;BME280;70703;55.652;37.710;2024-03-08T00:06:31;100327.91;;;-1.66;54.61
81232;BME280;70703;55.652;37.710;2024-03-08T00:06:44;100322.75;;;-1.67;54.78
81232;BME280;70703;55.652;37.710;2024-03-08T00:06:57;100328.66;;;-1.64;54.56
81232;BME280;70703;55.652;37.710;2024-03-08T00:07:09;100322.53;;;-1.64;54.58
81232;BME280;70703;55.652;37.710;2024-03-08T00:07:20;100324.25;;;-1.63;54.71
81232;BME280;70703;55.652;37.710;2024-03-08T00:07:32;100324.25;;;-1.63;54.89
81232;BME280;70703;55.652;37.710;2024-03-08T00:07:45;100319.81;;;-1.63;55.04
81232;BME280;70703;55.652;37.710;2024-03-08T00:07:58;100326.03;;;-1.64;54.99
81232;BME280;70703;55.652;37.710;2024-03-08T00:08:12;100325.94;;;-1.62;55.03
81232;BME280;70703;55.652;37.710;2024-03-08T00:08:23;100320.88;;;-1.65;54.70
81232;BME280;70703;55.652;37.710;2024-03-08T00:08:34;100321.81;;;-1.66;54.65
81232;BME280;70703;55.652;37.710;2024-03-08T00:08:47;100306.75;;;-1.77;54.72
81232;BME280;70703;55.652;37.710;2024-03-08T00:08:58;100326.19;;;-1.67;54.99
81232;BME280;70703;55.652;37.710;2024-03-08T00:09:10;100326.97;;;-1.65;54.88
81232;BME280;70703;55.652;37.710;2024-03-08T00:09:22;100310.03;;;-1.74;54.95
81232;BME280;70703;55.652;37.710;2024-03-08T00:09:35;100309.06;;;-1.73;54.99
81232;BME280;70703;55.652;37.710;2024-03-08T00:09:46;100303.09;;;-1.75;54.98
81232;BME280;70703;55.652;37.710;2024-03-08T00:10:00;100314.16;;;-1.69;54.73
81232;BME280;70703;55.652;37.710;2024-03-08T00:10:12;100313.38;;;-1.71;55.13
81232;BME280;70703;55.652;37.710;2024-03-08T00:10:23;100320.31;;;-1.70;54.84
81232;BME280;70703;55.652;37.710;2024-03-08T00:10:37;100315.16;;;-1.72;55.25
81232;BME280;70703;55.652;37.710;2024-03-08T00:10:50;100320.31;;;-1.70;55.24
81232;BME280;70703;55.652;37.710;2024-03-08T00:11:03;100314.69;;;-1.79;55.01
81232;BME280;70703;55.652;37.710;2024-03-08T00:11:15;100321.44;;;-1.75;55.07
81232;BME280;70703;55.652;37.710;2024-03-08T00:11:26;100309.81;;;-1.70;55.26
81232;BME280;70703;55.652;37.710;2024-03-08T00:11:40;100318.63;;;-1.71;55.15
81232;BME280;70703;55.652;37.710;2024-03-08T00:11:52;100314.31;;;-1.73;55.24
81232;BME280;70703;55.652;37.710;2024-03-08T00:12:04;100319.56;;;-1.73;55.30
81232;BME280;70703;55.652;37.710;2024-03-08T00:12:17;100318.81;;;-1.75;55.43
81232;BME280;70703;55.652;37.710;2024-03-08T00:12:29;100318.09;;;-1.77;55.54
81232;BME280;70703;55.652;37.710;2024-03-08T00:12:43;100312.75;;;-1.75;54.92
81232;BME280;70703;55.652;37.710;2024-03-08T00:12:55;100312.44;;;-1.70;55.23
81232;BME280;70703;55.652;37.710;2024-03-08T00:13:09;100303.28;;;-1.78;55.42
81232;BME280;70703;55.652;37.710;2024-03-08T00:13:21;100312.66;;;-1.74;55.33
81232;BME280;70703;55.652;37.710;2024-03-08T00:13:34;100312.56;;;-1.72;55.32
81232;BME280;70703;55.652;37.710;2024-03-08T00:13:46;100311.69;;;-1.73;55.40
81232;BME280;70703;55.652;37.710;2024-03-08T00:13:58;100324.81;;;-1.73;55.49
81232;BME280;70703;55.652;37.710;2024-03-08T00:14:09;100316.00;;;-1.71;55.26
81232;BME280;70703;55.652;37.710;2024-03-08T00:14:21;100309.06;;;-1.73;55.35
81232;BME280;70703;55.652;37.710;2024-03-08T00:14:33;100315.28;;;-1.74;55.45
81232;BME280;70703;55.652;37.710;2024-03-08T00:14:46;100309.25;;;-1.76;55.51
81232;BME280;70703;55.652;37.710;2024-03-08T00:14:57;100310.97;;;-1.75;55.62
81232;BME280;70703;55.652;37.710;2024-03-08T00:15:10;100315.28;;;-1.74;55.42
81232;BME280;70703;55.652;37.710;2024-03-08T00:15:26;100317.91;;;-1.74;55.34
81232;BME280;70703;55.652;37.710;2024-03-08T00:15:40;100313.56;;;-1.75;55.06
81232;BME280;70703;55.652;37.710;2024-03-08T00:15:53;100300.09;;;-1.83;55.07
81232;BME280;70703;55.652;37.710;2024-03-08T00:16:05;100308.22;;;-1.73;55.38
81232;BME280;70703;55.652;37.710;2024-03-08T00:16:19;100310.75;;;-1.71;55.49
81232;BME280;70703;55.652;37.710;2024-03-08T00:16:30;100309.06;;;-1.73;55.59
81232;BME280;70703;55.652;37.710;2024-03-08T00:16:42;100307.41;;;-1.74;55.55
81232;BME280;70703;55.652;37.710;2024-03-08T00:16:55;100313.47;;;-1.73;55.09
81232;BME280;70703;55.652;37.710;2024-03-08T00:17:07;100313.56;;;-1.75;55.57
81232;BME280;70703;55.652;37.710;2024-03-08T00:17:20;100305.03;;;-1.78;55.40
81232;BME280;70703;55.652;37.710;2024-03-08T00:17:34;100311.78;;;-1.74;55.27
81232;BME280;70703;55.652;37.710;2024-03-08T00:17:47;100303.91;;;-1.74;55.37
81232;BME280;70703;55.652;37.710;2024-03-08T00:17:58;100311.69;;;-1.73;55.17
81232;BME280;70703;55.652;37.710;2024-03-08T00:18:10;100305.03;;;-1.78;55.39
81232;BME280;70703;55.652;37.710;2024-03-08T00:18:22;100302.53;;;-1.80;55.57
81232;BME280;70703;55.652;37.710;2024-03-08T00:18:35;100310.97;;;-1.75;55.29
81232;BME280;70703;55.652;37.710;2024-03-08T00:18:48;100304.31;;;-1.80;55.66
81232;BME280;70703;55.652;37.710;2024-03-08T00:19:00;100309.16;;;-1.74;55.55
81232;BME280;70703;55.652;37.710;2024-03-08T00:19:13;100304.88;;;-1.75;55.39
81232;BME280;70703;55.652;37.710;2024-03-08T00:19:25;100302.34;;;-1.77;55.24
81232;BME280;70703;55.652;37.710;2024-03-08T00:19:39;100303.38;;;-1.79;55.63
81232;BME280;70703;55.652;37.710;2024-03-08T00:19:52;100308.34;;;-1.75;55.17
81232;BME280;70703;55.652;37.710;2024-03-08T00:20:06;100306.53;;;-1.74;55.51
81232;BME280;70703;55.652;37.710;2024-03-08T00:20:19;100305.72;;;-1.75;55.33
81232;BME280;70703;55.652;37.710;2024-03-08T00:20:31;100304.88;;;-1.75;55.26
81232;BME280;70703;55.652;37.710;2024-03-08T00:20:43;100307.50;;;-1.75;55.39
81232;BME280;70703;55.652;37.710;2024-03-08T00:20:56;100305.72;;;-1.75;55.21
81232;BME280;70703;55.652;37.710;2024-03-08T00:21:09;100302.41;;;-1.78;55.61
81232;BME280;70703;55.652;37.710;2024-03-08T00:21:21;100307.41;;;-1.74;55.70
81232;BME280;70703;55.652;37.710;2024-03-08T00:21:33;100300.47;;;-1.75;55.50
81232;BME280;70703;55.652;37.710;2024-03-08T00:21:45;100306.44;;;-1.73;55.55
81232;BME280;70703;55.652;37.710;2024-03-08T00:21:57;100300.47;;;-1.75;55.40
81232;BME280;70703;55.652;37.710;2024-03-08T00:22:08;100311.78;;;-1.74;55.70
81232;BME280;70703;55.652;37.710;2024-03-08T00:22:21;100312.66;;;-1.74;55.62
81232;BME280;70703;55.652;37.710;2024-03-08T00:22:34;100310.84;;;-1.73;55.20
81232;BME280;70703;55.652;37.710;2024-03-08T00:22:47;100306.63;;;-1.76;55.49
81232;BME280;70703;55.652;37.710;2024-03-08T00:22:58;100300.09;;;-1.83;55.44
81232;BME280;70703;55.652;37.710;2024-03-08T00:23:10;100311.88;;;-1.76;55.40
81232;BME280;70703;55.652;37.710;2024-03-08T00:23:21;100307.50;;;-1.75;55.48
81232;BME280;70703;55.652;37.710;2024-03-08T00:23:35;100304.88;;;-1.75;55.71
81232;BME280;70703;55.652;37.710;2024-03-08T00:23:47;100302.25;;;-1.75;55.27
81232;BME280;70703;55.652;37.710;2024-03-08T00:23:59;100298.25;;;-1.81;55.72
81232;BME280;70703;55.652;37.710;2024-03-08T00:24:11;100297.28;;;-1.80;55.70
81232;BME280;70703;55.652;37.710;2024-03-08T00:24:23;100308.34;;;-1.75;55.50
81232;BME280;70703;55.652;37.710;2024-03-08T00:24:36;100300.47;;;-1.75;55.19
81232;BME280;70703;55.652;37.710;2024-03-08T00:24:48;100298.03;;;-1.78;55.58
81232;BME280;70703;55.652;37.710;2024-03-08T00:25:02;100310.97;;;-1.75;55.33
81232;BME280;70703;55.652;37.710;2024-03-08T00:25:14;100303.09;;;-1.75;55.47
81232;BME280;70703;55.652;37.710;2024-03-08T00:25:25;100302.41;;;-1.78;55.62
81232;BME280;70703;55.652;37.710;2024-03-08T00:25:37;100301.41;;;-1.76;55.19
81232;BME280;70703;55.652;37.710;2024-03-08T00:25:50;100300.47;;;-1.75;55.50
81232;BME280;70703;55.652;37.710;2024-03-08T00:26:03;100298.78;;;-1.76;55.25
81232;BME280;70703;55.652;37.710;2024-03-08T00:26:15;100301.41;;;-1.76;55.39
81232;BME280;70703;55.652;37.710;2024-03-08T00:26:28;100300.66;;;-1.78;55.50
81232;BME280;70703;55.652;37.710;2024-03-08T00:26:41;100286.63;;;-1.77;55.38
81232;BME280;70703;55.652;37.710;2024-03-08T00:26:54;100299.63;;;-1.75;55.57
81232;BME280;70703;55.652;37.710;2024-03-08T00:27:06;100303.00;;;-1.73;55.23
81232;BME280;70703;55.652;37.710;2024-03-08T00:27:18;100296.91;;;-1.74;55.19
81232;BME280;70703;55.652;37.710;2024-03-08T00:27:32;100299.53;;;-1.74;55.18
81232;BME280;70703;55.652;37.710;2024-03-08T00:27:43;100294.38;;;-1.75;55.04
81232;BME280;70703;55.652;37.710;2024-03-08T00:27:55;100302.88;;;-1.71;55.31
81232;BME280;70703;55.652;37.710;2024-03-08T00:28:08;100289.97;;;-1.75;55.38
81232;BME280;70703;55.652;37.710;2024-03-08T00:28:24;100296.91;;;-1.74;55.08
81232;BME280;70703;55.652;37.710;2024-03-08T00:28:38;100301.28;;;-1.74;55.05
81232;BME280;70703;55.652;37.710;2024-03-08T00:28:49;100296.16;;;-1.76;55.42
81232;BME280;70703;55.652;37.710;2024-03-08T00:29:01;100296.06;;;-1.74;55.04
81232;BME280;70703;55.652;37.710;2024-03-08T00:29:12;100293.53;;;-1.76;55.05
81232;BME280;70703;55.652;37.710;2024-03-08T00:29:24;100293.44;;;-1.74;55.40
81232;BME280;70703;55.652;37.710;2024-03-08T00:29:36;100291.09;;;-1.79;54.94
81232;BME280;70703;55.652;37.710;2024-03-08T00:29:50;100294.38;;;-1.75;55.41
81232;BME280;70703;55.652;37.710;2024-03-08T00:30:02;100287.56;;;-1.78;55.56
81232;BME280;70703;55.652;37.710;2024-03-08T00:30:14;100294.56;;;-1.78;55.19
81232;BME280;70703;55.652;37.710;2024-03-08T00:30:28;100298.03;;;-1.78;55.54
81232;BME280;70703;55.652;37.710;2024-03-08T00:30:40;100298.78;;;-1.76;55.52
81232;BME280;70703;55.652;37.710;2024-03-08T00:30:53;100299.63;;;-1.75;55.35
81232;BME280;70703;55.652;37.710;2024-03-08T00:31:06;100296.06;;;-1.74;55.28
81232;BME280;70703;55.652;37.710;2024-03-08T00:31:18;100304.03;;;-1.76;55.27
81232;BME280;70703;55.652;37.710;2024-03-08T00:31:31;100283.34;;;-1.80;55.50
81232;BME280;70703;55.652;37.710;2024-03-08T00:31:43;100296.25;;;-1.77;55.42
81232;BME280;70703;55.652;37.710;2024-03-08T00:31:55;100293.53;;;-1.76;55.51
81232;BME280;70703;55.652;37.710;2024-03-08T00:32:07;100302.34;;;-1.77;55.14
81232;BME280;70703;55.652;37.710;2024-03-08T00:32:18;100294.56;;;-1.78;55.25
81232;BME280;70703;55.652;37.710;2024-03-08T00:32:33;100301.50;;;-1.77;55.33
81232;BME280;70703;55.652;37.710;2024-03-08T00:32:44;100296.34;;;-1.79;55.18
81232;BME280;70703;55.652;37.710;2024-03-08T00:32:57;100295.41;;;-1.78;55.32
81232;BME280;70703;55.652;37.710;2024-03-08T00:33:10;100295.41;;;-1.78;55.34
81232;BME280;70703;55.652;37.710;2024-03-08T00:33:21;100291.94;;;-1.78;55.57
81232;BME280;70703;55.652;37.710;2024-03-08T00:33:33;100298.88;;;-1.77;55.34
81232;BME280;70703;55.652;37.710;2024-03-08T00:33:45;100293.72;;;-1.79;55.27
81232;BME280;70703;55.652;37.710;2024-03-08T00:33:58;100292.91;;;-1.79;55.47
81232;BME280;70703;55.652;37.710;2024-03-08T00:34:10;100291.19;;;-1.80;55.31
81232;BME280;70703;55.652;37.710;2024-03-08T00:34:22;100299.72;;;-1.77;55.25
81232;BME280;70703;55.652;37.710;2024-03-08T00:34:35;100292.69;;;-1.76;55.34
81232;BME280;70703;55.652;37.710;2024-03-08T00:34:49;100293.72;;;-1.79;55.58
81232;BME280;70703;55.652;37.710;2024-03-08T00:35:03;100295.41;;;-1.78;55.24
81232;BME280;70703;55.652;37.710;2024-03-08T00:35:18;100295.41;;;-1.78;55.35
81232;BME280;70703;55.652;37.710;2024-03-08T00:35:30;100294.50;;;-1.77;55.20
81232;BME280;70703;55.652;37.710;2024-03-08T00:35:43;100290.19;;;-1.78;55.23
81232;BME280;70703;55.652;37.710;2024-03-08T00:35:54;100293.72;;;-1.79;55.18
81232;BME280;70703;55.652;37.710;2024-03-08T00:36:07;100292.69;;;-1.76;55.29
81232;BME280;70703;55.652;37.710;2024-03-08T00:36:20;100291.00;;;-1.77;55.22
81232;BME280;70703;55.652;37.710;2024-03-08T00:36:31;100288.38;;;-1.77;54.91
81232;BME280;70703;55.652;37.710;2024-03-08T00:36:43;100293.63;;;-1.77;55.26
81232;BME280;70703;55.652;37.710;2024-03-08T00:36:55;100286.63;;;-1.77;55.29
81232;BME280;70703;55.652;37.710;2024-03-08T00:37:06;100285.75;;;-1.77;55.37
81232;BME280;70703;55.652;37.710;2024-03-08T00:37:19;100283.22;;;-1.79;55.13
81232;BME280;70703;55.652;37.710;2024-03-08T00:37:33;100284.16;;;-1.80;55.27
81232;BME280;70703;55.652;37.710;2024-03-08T00:37:45;100284.94;;;-1.78;54.66
81232;BME280;70703;55.652;37.710;2024-03-08T00:37:57;100286.06;;;-1.82;54.90
81232;BME280;70703;55.652;37.710;2024-03-08T00:38:09;100286.78;;;-1.80;54.69
81232;BME280;70703;55.652;37.710;2024-03-08T00:38:21;100286.63;;;-1.77;55.31
81232;BME280;70703;55.652;37.710;2024-03-08T00:38:33;100291.88;;;-1.77;55.26
81232;BME280;70703;55.652;37.710;2024-03-08T00:38:45;100289.25;;;-1.77;54.98
81232;BME280;70703;55.652;37.710;2024-03-08T00:38:57;100290.19;;;-1.78;55.29
81232;BME280;70703;55.652;37.710;2024-03-08T00:39:11;100287.56;;;-1.78;55.00
81232;BME280;70703;55.652;37.710;2024-03-08T00:39:24;100289.25;;;-1.77;54.98
81232;BME280;70703;55.652;37.710;2024-03-08T00:39:38;100284.94;;;-1.78;54.71
81232;BME280;70703;55.652;37.710;2024-03-08T00:39:50;100289.25;;;-1.77;55.11
81232;BME280;70703;55.652;37.710;2024-03-08T00:40:01;100280.63;;;-1.79;54.77
81232;BME280;70703;55.652;37.710;2024-03-08T00:40:13;100283.44;;;-1.82;55.12
81232;BME280;70703;55.652;37.710;2024-03-08T00:40:25;100287.84;;;-1.82;55.16
81232;BME280;70703;55.652;37.710;2024-03-08T00:40:37;100291.31;;;-1.82;55.10
81232;BME280;70703;55.652;37.710;2024-03-08T00:40:48;100293.09;;;-1.82;55.17
81232;BME280;70703;55.652;37.710;2024-03-08T00:41:03;100284.34;;;-1.83;55.08
81232;BME280;70703;55.652;37.710;2024-03-08T00:41:15;100282.13;;;-1.89;55.29
81232;BME280;70703;55.652;37.710;2024-03-08T00:41:28;100285.28;;;-1.84;54.83
81232;BME280;70703;55.652;37.710;2024-03-08T00:41:39;100288.69;;;-1.82;55.30
81232;BME280;70703;55.652;37.710;2024-03-08T00:41:51;100286.97;;;-1.83;55.22
81232;BME280;70703;55.652;37.710;2024-03-08T00:42:02;100288.69;;;-1.82;55.17
81232;BME280;70703;55.652;37.710;2024-03-08T00:42:15;100282.59;;;-1.82;54.86
81232;BME280;70703;55.652;37.710;2024-03-08T00:42:26;100292.13;;;-1.81;55.13
81232;BME280;70703;55.652;37.710;2024-03-08T00:42:38;100280.03;;;-1.84;54.99
81232;BME280;70703;55.652;37.710;2024-03-08T00:42:52;100283.34;;;-1.80;54.86
81232;BME280;70703;55.652;37.710;2024-03-08T00:43:05;100279.03;;;-1.81;54.85
81232;BME280;70703;55.652;37.710;2024-03-08T00:43:17;100277.34;;;-1.82;54.59
81232;BME280;70703;55.652;37.710;2024-03-08T00:43:28;100280.91;;;-1.83;55.17
81232;BME280;70703;55.652;37.710;2024-03-08T00:43:41;100276.69;;;-1.86;55.00
81232;BME280;70703;55.652;37.710;2024-03-08T00:43:53;100282.66;;;-1.84;55.00
81232;BME280;70703;55.652;37.710;2024-03-08T00:44:05;100277.63;;;-1.87;55.14
81232;BME280;70703;55.652;37.710;2024-03-08T00:44:16;100281.94;;;-1.86;55.26
81232;BME280;70703;55.652;37.710;2024-03-08T00:44:28;100280.25;;;-1.87;54.97
81232;BME280;70703;55.652;37.710;2024-03-08T00:44:41;100288.00;;;-1.85;55.22
81232;BME280;70703;55.652;37.710;2024-03-08T00:44:54;100288.97;;;-1.86;55.07
81232;BME280;70703;55.652;37.710;2024-03-08T00:45:07;100283.72;;;-1.86;55.36
81232;BME280;70703;55.652;37.710;2024-03-08T00:45:19;100281.94;;;-1.86;55.22
81232;BME280;70703;55.652;37.710;2024-03-08T00:45:32;100277.44;;;-1.84;55.31
81232;BME280;70703;55.652;37.710;2024-03-08T00:45:44;100273.50;;;-1.91;55.14
81232;BME280;70703;55.652;37.710;2024-03-08T00:45:56;100281.94;;;-1.86;55.42
81232;BME280;70703;55.652;37.710;2024-03-08T00:46:09;100279.31;;;-1.86;55.35
81232;BME280;70703;55.652;37.710;2024-03-08T00:46:21;100276.69;;;-1.86;55.37
81232;BME280;70703;55.652;37.710;2024-03-08T00:46:34;100273.25;;;-1.86;55.11
81232;BME280;70703;55.652;37.710;2024-03-08T00:46:48;100275.00;;;-1.87;55.24
81232;BME280;70703;55.652;37.710;2024-03-08T00:47:01;100287.19;;;-1.86;55.20
81232;BME280;70703;55.652;37.710;2024-03-08T00:47:13;100275.00;;;-1.87;55.04
81232;BME280;70703;55.652;37.710;2024-03-08T00:47:26;100277.63;;;-1.87;54.91
81232;BME280;70703;55.652;37.710;2024-03-08T00:47:37;100260.50;;;-1.93;55.15
81232;BME280;70703;55.652;37.710;2024-03-08T00:47:50;100269.75;;;-1.87;55.09
81232;BME280;70703;55.652;37.710;2024-03-08T00:48:03;100283.81;;;-1.88;55.14
81232;BME280;70703;55.652;37.710;2024-03-08T00:48:17;100272.38;;;-1.87;55.00
81232;BME280;70703;55.652;37.710;2024-03-08T00:48:29;100282.03;;;-1.87;55.40
81232;BME280;70703;55.652;37.710;2024-03-08T00:48:42;100271.84;;;-1.92;55.12
81232;BME280;70703;55.652;37.710;2024-03-08T00:48:54;100276.03;;;-1.90;54.97
81232;BME280;70703;55.652;37.710;2024-03-08T00:49:08;100275.19;;;-1.90;54.86
81232;BME280;70703;55.652;37.710;2024-03-08T00:49:20;100258.38;;;-2.00;54.80
81232;BME280;70703;55.652;37.710;2024-03-08T00:49:33;100266.69;;;-1.94;55.04
81232;BME280;70703;55.652;37.710;2024-03-08T00:49:44;100271.84;;;-1.92;54.75
81232;BME280;70703;55.652;37.710;2024-03-08T00:49:57;100269.13;;;-1.91;55.02
81232;BME280;70703;55.652;37.710;2024-03-08T00:50:10;100272.66;;;-1.92;54.83
81232;BME280;70703;55.652;37.710;2024-03-08T00:50:23;100273.41;;;-1.90;54.88
81232;BME280;70703;55.652;37.710;2024-03-08T00:50:35;100273.34;;;-1.88;54.64
81232;BME280;70703;55.652;37.710;2024-03-08T00:50:49;100272.56;;;-1.90;54.53
81232;BME280;70703;55.652;37.710;2024-03-08T00:51:02;100267.22;;;-1.88;54.82
81232;BME280;70703;55.652;37.710;2024-03-08T00:51:14;100270.72;;;-1.88;54.44
81232;BME280;70703;55.652;37.710;2024-03-08T00:51:26;100272.47;;;-1.88;54.28
81232;BME280;70703;55.652;37.710;2024-03-08T00:51:38;100270.88;;;-1.91;54.71
81232;BME280;70703;55.652;37.710;2024-03-08T00:51:50;100269.75;;;-1.87;54.76
81232;BME280;70703;55.652;37.710;2024-03-08T00:52:03;100268.09;;;-1.88;54.38
81232;BME280;70703;55.652;37.710;2024-03-08T00:52:16;100269.75;;;-1.87;54.45
81232;BME280;70703;55.652;37.710;2024-03-08T00:52:29;100265.53;;;-1.90;54.29
81232;BME280;70703;55.652;37.710;2024-03-08T00:52:41;100262.91;;;-1.90;54.55
81232;BME280;70703;55.652;37.710;2024-03-08T00:52:53;100269.94;;;-1.90;54.31
81232;BME280;70703;55.652;37.710;2024-03-08T00:53:06;100259.56;;;-1.92;54.63
81232;BME280;70703;55.652;37.710;2024-03-08T00:53:17;100256.13;;;-1.92;54.76
81232;BME280;70703;55.652;37.710;2024-03-08T00:53:29;100268.16;;;-1.90;54.76
81232;BME280;70703;55.652;37.710;2024-03-08T00:53:41;100263.88;;;-1.91;54.48
81232;BME280;70703;55.652;37.710;2024-03-08T00:53:52;100264.91;;;-1.93;54.81
81232;BME280;70703;55.652;37.710;2024-03-08T00:54:06;100247.00;;;-2.01;54.38
81232;BME280;70703;55.652;37.710;2024-03-08T00:54:18;100257.97;;;-1.94;54.61
81232;BME280;70703;55.652;37.710;2024-03-08T00:54:30;100263.03;;;-1.91;54.41
81232;BME280;70703;55.652;37.710;2024-03-08T00:54:41;100268.34;;;-1.93;54.50
81232;BME280;70703;55.652;37.710;2024-03-08T00:54:55;100261.34;;;-1.92;54.47
81232;BME280;70703;55.652;37.710;2024-03-08T00:55:08;100263.22;;;-1.94;54.63
81232;BME280;70703;55.652;37.710;2024-03-08T00:55:22;100269.38;;;-1.95;54.24
81232;BME280;70703;55.652;37.710;2024-03-08T00:55:33;100258.16;;;-1.97;54.81
81232;BME280;70703;55.652;37.710;2024-03-08T00:55:46;100258.25;;;-1.99;54.41
81232;BME280;70703;55.652;37.710;2024-03-08T00:55:57;100265.84;;;-1.94;54.70
81232;BME280;70703;55.652;37.710;2024-03-08T00:56:08;100269.31;;;-1.94;54.72
81232;BME280;70703;55.652;37.710;2024-03-08T00:56:21;100268.47;;;-1.94;54.70
81232;BME280;70703;55.652;37.710;2024-03-08T00:56:34;100256.28;;;-1.95;54.62
81232;BME280;70703;55.652;37.710;2024-03-08T00:56:48;100262.47;;;-1.96;54.46
81232;BME280;70703;55.652;37.710;2024-03-08T00:56:59;100261.53;;;-1.95;54.42
81232;BME280;70703;55.652;37.710;2024-03-08T00:57:13;100261.53;;;-1.95;54.46
81232;BME280;70703;55.652;37.710;2024-03-08T00:57:25;100258.16;;;-1.97;54.66
81232;BME280;70703;55.652;37.710;2024-03-08T00:57:39;100261.53;;;-1.95;54.51
81232;BME280;70703;55.652;37.710;2024-03-08T00:57:52;100266.75;;;-1.95;54.59
81232;BME280;70703;55.652;37.710;2024-03-08T00:58:04;100265.09;;;-1.96;54.37
81232;BME280;70703;55.652;37.710;2024-03-08T00:58:16;100260.69;;;-1.96;54.38
81232;BME280;70703;55.652;37.710;2024-03-08T00:58:28;100265.84;;;-1.94;54.75
81232;BME280;70703;55.652;37.710;2024-03-08T00:58:40;100255.53;;;-1.97;54.55
81232;BME280;70703;55.652;37.710;2024-03-08T00:58:52;100263.22;;;-1.94;54.61
81232;BME280;70703;55.652;37.710;2024-03-08T00:59:04;100251.22;;;-1.98;54.30
81232;BME280;70703;55.652;37.710;2024-03-08T00:59:18;100257.13;;;-1.95;54.24
81232;BME280;70703;55.652;37.710;2024-03-08T00:59:29;100258.16;;;-1.97;54.24
81232;BME280;70703;55.652;37.710;2024-03-08T00:59:44;100262.28;;;-1.93;54.17
81232;BME280;70703;55.652;37.710;2024-03-08T00:59:56;100259.84;;;-1.96;54.65
81232;BME280;70703;55.652;37.710;2024-03-08T01:00:09;100258.84;;;-1.94;54.35
81232;BME280;70703;55.652;37.710;2024-03-08T01:00:24;100265.75;;;-1.93;54.61
81232;BME280;70703;55.652;37.710;2024-03-08T01:00:38;100261.34;;;-1.92;54.70
81232;BME280;70703;55.652;37.710;2024-03-08T01:00:51;100254.63;;;-1.96;54.68
81232;BME280;70703;55.652;37.710;2024-03-08T01:01:03;100255.25;;;-1.93;54.40
81232;BME280;70703;55.652;37.710;2024-03-08T01:01:15;100261.34;;;-1.92;54.28
81232;BME280;70703;55.652;37.710;2024-03-08T01:01:27;100247.69;;;-1.97;54.46
81232;BME280;70703;55.652;37.710;2024-03-08T01:01:40;100249.38;;;-1.96;54.23
81232;BME280;70703;55.652;37.710;2024-03-08T01:01:51;100260.50;;;-1.93;54.20
81232;BME280;70703;55.652;37.710;2024-03-08T01:02:04;100255.25;;;-1.93;54.25
81232;BME280;70703;55.652;37.710;2024-03-08T01:02:17;100257.03;;;-1.93;54.38
81232;BME280;70703;55.652;37.710;2024-03-08T01:02:29;100241.59;;;-1.98;54.54
81232;BME280;70703;55.652;37.710;2024-03-08T01:02:41;100249.38;;;-1.96;54.66
81232;BME280;70703;55.652;37.710;2024-03-08T01:02:53;100245.25;;;-2.00;54.72
81232;BME280;70703;55.652;37.710;2024-03-08T01:03:06;100255.25;;;-1.93;54.48
81232;BME280;70703;55.652;37.710;2024-03-08T01:03:17;100231.69;;;-2.07;54.28
81232;BME280;70703;55.652;37.710;2024-03-08T01:03:28;100257.88;;;-1.93;54.39
81232;BME280;70703;55.652;37.710;2024-03-08T01:03:43;100256.13;;;-1.92;54.49
81232;BME280;70703;55.652;37.710;2024-03-08T01:03:56;100251.03;;;-1.95;54.35
81232;BME280;70703;55.652;37.710;2024-03-08T01:04:09;100253.59;;;-1.94;54.31
81232;BME280;70703;55.652;37.710;2024-03-08T01:04:23;100243.38;;;-1.98;54.60
81232;BME280;70703;55.652;37.710;2024-03-08T01:04:36;100250.88;;;-1.92;54.08